Time;durP1;ratioP1;P1;durP2;ratioP2;P2;SDS_P1;SDS_P2;PMS_P1;PMS_P2;Temp;Humidity;BMP_temperature;BMP_pressure;BME280_temperature;BME280_humidity;BME280_pressure;Samples;Min_cycle;Max_cycle;Signal;HPM_P1;HPM_P2
2022/04/07 00:00:20;;;;;;;;;1.00;1.00;;;;;11.29;71.69;99405.53;4992742;28;46930;-84
2022/04/07 00:02:46;;;;;;;;;1.25;1.25;;;;;11.47;71.68;99436.38;4992456;28;45726;-84
2022/04/07 00:05:12;;;;;;;;;1.00;1.00;;;;;11.40;71.63;99424.03;4993546;28;45622;-83
2022/04/07 00:07:38;;;;;;;;;2.00;2.00;;;;;11.67;71.68;99463.75;4992622;28;45404;-83
2022/04/07 00:10:04;;;;;;;;;2.00;2.00;;;;;11.74;71.76;99469.97;4991950;28;46723;-83
2022/04/07 00:12:32;;;;;;;;;1.00;1.00;;;;;11.71;71.71;99449.75;4991828;28;45897;-84
2022/04/07 00:14:59;;;;;;;;;1.25;1.25;;;;;11.43;71.71;99398.66;4988801;28;45829;-84
2022/04/07 00:17:25;;;;;;;;;1.00;1.00;;;;;11.75;71.64;99456.81;4991761;28;45570;-83
2022/04/07 00:19:51;;;;;;;;;1.75;1.75;;;;;11.53;71.71;99426.81;4991993;28;46292;-84
2022/04/07 00:22:16;;;;;;;;;2.75;2.75;;;;;11.50;71.74;99410.97;4991037;28;45857;-84
2022/04/07 00:24:42;;;;;;;;;1.50;1.50;;;;;11.63;71.69;99430.41;4994310;28;45266;-83
2022/04/07 00:27:07;;;;;;;;;1.50;1.50;;;;;11.70;71.53;99441.88;4995279;28;45292;-84
2022/04/07 00:29:33;;;;;;;;;2.00;2.00;;;;;11.62;71.53;99411.09;4989522;28;54809;-83
2022/04/07 00:31:59;;;;;;;;;1.50;1.50;;;;;11.60;71.29;99409.31;4985932;28;45417;-81
2022/04/07 00:34:24;;;;;;;;;2.75;1.75;;;;;11.83;71.12;99439.38;4993076;28;45695;-84
2022/04/07 00:36:50;;;;;;;;;2.00;2.00;;;;;11.58;71.27;99404.06;4990465;28;45479;-84
2022/04/07 00:39:15;;;;;;;;;2.50;2.50;;;;;11.54;71.25;99373.31;4991923;28;46421;-83
2022/04/07 00:41:42;;;;;;;;;3.00;3.00;;;;;11.53;71.09;99382.06;4993612;28;45653;-85
2022/04/07 00:44:08;;;;;;;;;2.00;2.00;;;;;11.79;70.83;99415.63;4992106;28;45771;-83
2022/04/07 00:46:38;;;;;;;;;2.00;2.00;;;;;11.93;70.56;99429.81;4991919;28;45926;-83
2022/04/07 00:49:04;;;;;;;;;2.50;2.00;;;;;11.94;70.62;99407.00;4991648;28;45578;-84
2022/04/07 00:51:30;;;;;;;;;3.00;3.00;;;;;11.59;70.51;99347.03;4991894;28;45572;-84
2022/04/07 00:53:56;;;;;;;;;2.00;2.00;;;;;11.67;70.44;99353.22;4993586;28;45697;-83
2022/04/07 00:56:22;;;;;;;;;3.50;3.50;;;;;11.80;70.46;99360.34;4994526;28;44870;-81
2022/04/07 00:58:49;;;;;;;;;5.00;4.00;;;;;11.95;70.42;99366.63;4992110;28;45590;-83
2022/04/07 01:01:17;;;;;;;;;3.00;2.00;;;;;12.05;69.98;99384.25;4991389;28;45887;-84
2022/04/07 01:03:43;;;;;;;;;2.25;2.00;;;;;11.74;69.98;99328.72;4991358;28;45321;-84
2022/04/07 01:06:08;;;;;;;;;3.25;2.25;;;;;11.97;70.03;99364.88;4991836;28;45724;-84
2022/04/07 01:08:34;;;;;;;;;3.00;2.50;;;;;11.89;70.16;99343.78;4988593;28;45558;-83
2022/04/07 01:11:00;;;;;;;;;3.25;3.25;;;;;11.84;70.27;99340.22;4983167;28;46010;-83
2022/04/07 01:13:48;;;;;;;;;3.50;2.75;;;;;11.90;70.07;99342.03;4995204;28;45495;-84
2022/04/07 01:16:14;;;;;;;;;4.00;2.25;;;;;11.88;70.26;99337.63;4992364;28;45615;-84
2022/04/07 01:18:40;;;;;;;;;3.00;3.00;;;;;11.84;70.30;99319.19;4990926;28;45518;-83
2022/04/07 01:21:08;;;;;;;;;4.25;4.00;;;;;12.04;70.21;99353.53;4992631;28;46259;-85
2022/04/07 01:23:35;;;;;;;;;6.50;5.75;;;;;12.04;70.35;99354.41;4991307;28;45735;-83
2022/04/07 01:26:04;;;;;;;;;4.50;4.00;;;;;11.76;70.30;99295.38;4990912;28;45468;-83
2022/04/07 01:28:29;;;;;;;;;3.75;3.00;;;;;12.04;70.51;99346.50;4993599;28;46581;-84
2022/04/07 01:30:54;;;;;;;;;4.00;4.00;;;;;11.86;70.41;99310.41;4989164;28;45558;-84
2022/04/07 01:33:21;;;;;;;;;3.25;2.25;;;;;11.93;70.50;99323.63;4991638;28;45610;-83
2022/04/07 01:35:46;;;;;;;;;2.25;1.75;;;;;11.95;70.57;99329.78;4989602;28;45502;-84
2022/04/07 01:38:12;;;;;;;;;2.00;2.00;;;;;12.06;70.64;99342.13;4987463;28;45819;-84
2022/04/07 01:40:38;;;;;;;;;2.25;2.00;;;;;11.66;70.66;99261.09;4990932;28;45574;-83
2022/04/07 01:43:06;;;;;;;;;4.50;4.25;;;;;11.74;70.89;99269.94;4989933;28;45837;-83
2022/04/07 01:45:33;;;;;;;;;3.50;2.25;;;;;11.93;71.72;99289.41;4990902;28;45755;-85
2022/04/07 01:48:00;;;;;;;;;3.25;2.50;;;;;11.99;72.70;99323.66;5005729;28;47343;-83
2022/04/07 01:50:26;;;;;;;;;3.75;2.50;;;;;11.85;72.58;99292.84;4995590;28;45776;-84
2022/04/07 01:52:51;;;;;;;;;4.00;3.75;;;;;11.71;73.19;99285.69;4988902;28;45971;-84
2022/04/07 01:55:17;;;;;;;;;2.50;2.25;;;;;11.85;73.51;99316.53;4990634;28;45452;-83
2022/04/07 01:57:44;;;;;;;;;3.50;3.00;;;;;11.64;73.42;99282.16;4991767;28;45660;-82
2022/04/07 02:00:10;;;;;;;;;4.75;4.50;;;;;11.78;73.70;99303.31;4991490;28;45431;-84
2022/04/07 02:02:36;;;;;;;;;4.00;4.00;;;;;11.60;73.83;99273.34;4991272;28;45554;-83
2022/04/07 02:05:08;;;;;;;;;5.00;4.00;;;;;11.51;73.20;99240.84;4972498;28;45559;-83
2022/04/07 02:07:36;;;;;;;;;3.00;3.00;;;;;11.74;73.52;99283.09;4991060;28;45573;-83
2022/04/07 02:10:06;;;;;;;;;5.25;4.00;;;;;11.79;73.68;99303.31;4991303;28;45917;-84
2022/04/07 02:12:33;;;;;;;;;7.00;7.00;;;;;11.81;73.79;99304.19;4990679;28;45760;-83
2022/04/07 02:14:59;;;;;;;;;22.50;18.50;;;;;11.80;73.87;99289.28;4990180;28;45505;-84
2022/04/07 02:17:25;;;;;;;;;10.50;10.00;;;;;11.51;73.85;99236.47;4990954;28;45684;-83
2022/04/07 02:19:52;;;;;;;;;11.75;9.50;;;;;11.56;74.04;99239.13;4990581;28;45798;-83
2022/04/07 02:22:19;;;;;;;;;4.25;4.25;;;;;11.68;73.94;99259.38;4990806;28;45554;-83
2022/04/07 02:24:45;;;;;;;;;4.50;4.50;;;;;11.65;74.27;99249.72;4990309;28;45390;-83
2022/04/07 02:27:10;;;;;;;;;5.50;5.25;;;;;11.85;74.52;99278.81;4972614;28;46415;-84
2022/04/07 02:29:35;;;;;;;;;6.00;4.75;;;;;11.60;74.53;99233.88;4991458;28;45713;-85
2022/04/07 02:32:01;;;;;;;;;3.00;3.00;;;;;11.82;75.00;99260.34;4994005;28;45325;-84
2022/04/07 02:34:27;;;;;;;;;3.00;3.00;;;;;11.74;75.06;99238.34;4986616;28;45690;-82
2022/04/07 02:36:52;;;;;;;;;4.00;2.25;;;;;11.66;76.18;99225.16;4980364;28;46227;-83
2022/04/07 02:39:17;;;;;;;;;6.75;5.75;;;;;11.78;76.18;99233.13;4990199;28;45430;-84
2022/04/07 02:41:43;;;;;;;;;6.00;3.00;;;;;11.46;77.19;99163.63;4974496;28;45672;-82
2022/04/07 02:44:08;;;;;;;;;9.25;8.25;;;;;11.42;77.55;99172.38;4990042;28;45473;-85
2022/04/07 02:46:33;;;;;;;;;14.75;14.00;;;;;11.65;78.20;99207.59;4990874;28;45601;-83
2022/04/07 02:48:59;;;;;;;;;9.75;9.75;;;;;11.49;78.61;99161.03;4990455;28;45468;-83
2022/04/07 02:51:24;;;;;;;;;6.25;5.50;;;;;11.47;77.16;99161.00;4992263;28;45759;-83
2022/04/07 02:53:51;;;;;;;;;5.75;5.75;;;;;11.66;76.90;99190.06;4990344;28;45573;-82
2022/04/07 02:56:17;;;;;;;;;10.25;9.50;;;;;11.62;76.89;99174.28;4990012;28;46412;-84
2022/04/07 02:58:42;;;;;;;;;14.00;13.00;;;;;11.41;76.94;99128.53;4991389;28;45413;-83
2022/04/07 03:01:14;;;;;;;;;14.00;14.00;;;;;11.47;76.88;99131.19;4991221;28;45365;-84
2022/04/07 03:03:39;;;;;;;;;18.25;17.25;;;;;11.63;76.92;99151.47;4989745;28;45388;-83
2022/04/07 03:06:04;;;;;;;;;12.25;11.50;;;;;11.48;76.86;99115.44;4988879;28;46597;-84
2022/04/07 03:08:30;;;;;;;;;9.33;9.33;;;;;11.53;76.68;99116.34;4989660;28;48520;-84
2022/04/07 03:10:55;;;;;;;;;6.00;5.00;;;;;11.31;76.94;99072.38;4989627;28;45908;-84
2022/04/07 03:13:20;;;;;;;;;7.00;5.33;;;;;11.43;77.07;99076.78;4990318;28;45493;-83
2022/04/07 03:15:46;;;;;;;;;7.00;7.00;;;;;11.26;76.95;99039.91;4990681;28;46654;-82
2022/04/07 03:18:12;;;;;;;;;7.50;7.00;;;;;11.78;77.18;99130.47;4993390;28;45449;-84
2022/04/07 03:20:37;;;;;;;;;6.50;5.50;;;;;11.60;77.46;99088.28;4993041;28;45410;-84
2022/04/07 03:23:03;;;;;;;;;6.75;6.00;;;;;11.78;77.41;99116.44;4993279;28;45708;-84
2022/04/07 03:25:28;;;;;;;;;9.75;9.75;;;;;11.53;76.88;99057.56;4992874;28;46207;-85
2022/04/07 03:27:53;;;;;;;;;19.67;16.67;;;;;11.80;77.04;99096.25;4993307;28;49595;-84
2022/04/07 03:30:19;;;;;;;;;22.50;20.25;;;;;11.52;77.04;99040.00;4993408;28;45357;-83
2022/04/07 03:32:44;;;;;;;;;22.33;20.33;;;;;11.74;77.13;99059.38;4990192;28;46647;-81
2022/04/07 03:35:09;;;;;;;;;15.75;14.00;;;;;11.76;77.34;99061.13;4994709;28;45451;-85
2022/04/07 03:37:35;;;;;;;;;13.33;12.67;;;;;11.88;77.28;99074.38;4992967;28;45670;-84
2022/04/07 03:40:00;;;;;;;;;6.00;6.00;;;;;11.92;78.02;99070.00;4992203;28;45494;-83
2022/04/07 03:42:25;;;;;;;;;7.25;6.75;;;;;11.79;77.95;99049.75;4993028;28;45665;-84
2022/04/07 03:44:51;;;;;;;;;5.00;4.00;;;;;11.67;78.38;99029.53;4992678;28;46591;-84
2022/04/07 03:47:16;;;;;;;;;8.33;7.00;;;;;11.88;77.72;99041.91;4992725;28;45774;-84
2022/04/07 03:49:41;;;;;;;;;6.75;6.75;;;;;11.75;77.92;99019.91;4987474;28;45285;-84
2022/04/07 03:52:07;;;;;;;;;5.25;4.25;;;;;11.85;77.67;99020.84;4992757;28;45520;-83
2022/04/07 03:54:32;;;;;;;;;6.00;5.50;;;;;11.59;77.67;98970.75;4992439;28;46378;-83
2022/04/07 03:56:58;;;;;;;;;12.25;8.00;;;;;11.91;77.78;98991.00;4992181;28;45586;-83
2022/04/07 03:59:23;;;;;;;;;13.75;12.25;;;;;11.62;77.67;98933.91;4993110;28;45317;-83
2022/04/07 04:01:49;;;;;;;;;4.50;4.00;;;;;11.70;77.51;98961.13;4992679;28;45591;-83
2022/04/07 04:04:15;;;;;;;;;4.25;4.25;;;;;11.62;77.46;98940.06;4992442;28;45521;-83
2022/04/07 04:06:40;;;;;;;;;3.50;3.50;;;;;11.80;77.92;98968.16;4992292;28;45484;-84
2022/04/07 04:09:06;;;;;;;;;6.50;5.50;;;;;11.89;77.42;98985.75;4993333;28;45583;-84
2022/04/07 04:11:31;;;;;;;;;10.00;9.00;;;;;11.92;77.95;98979.59;4991982;28;45559;-83
2022/04/07 04:13:56;;;;;;;;;12.50;11.75;;;;;11.76;77.83;98932.16;4992176;28;46279;-84
2022/04/07 04:16:22;;;;;;;;;8.33;7.33;;;;;11.81;77.55;98955.88;4995776;28;45451;-83
2022/04/07 04:18:47;;;;;;;;;10.00;8.75;;;;;11.61;77.76;98904.09;4992538;28;45469;-83
2022/04/07 04:21:12;;;;;;;;;7.00;7.00;;;;;12.05;77.78;98982.25;4974579;28;45580;-84
2022/04/07 04:23:41;;;;;;;;;10.25;8.50;;;;;11.90;78.13;98940.13;4992422;28;45809;-84
2022/04/07 04:26:06;;;;;;;;;11.00;10.25;;;;;11.78;78.01;98926.94;4974838;28;45676;-83
2022/04/07 04:28:32;;;;;;;;;13.00;12.25;;;;;11.90;79.20;98953.28;4988030;28;46784;-82
2022/04/07 04:30:58;;;;;;;;;10.00;8.00;;;;;11.67;78.83;98905.84;4991945;28;45601;-83
2022/04/07 04:33:23;;;;;;;;;7.00;6.75;;;;;11.78;78.56;98904.13;4992489;28;45441;-84
2022/04/07 04:35:49;;;;;;;;;6.00;6.00;;;;;11.65;78.20;98883.94;4992319;28;45858;-83
2022/04/07 04:38:14;;;;;;;;;5.00;5.00;;;;;11.91;78.08;98915.53;4992501;28;45488;-84
2022/04/07 04:40:40;;;;;;;;;7.25;5.75;;;;;11.79;77.87;98900.59;4991727;28;45704;-84
2022/04/07 04:43:05;;;;;;;;;5.00;5.00;;;;;11.74;79.63;98894.47;4993059;28;46492;-84
2022/04/07 04:45:30;;;;;;;;;4.00;3.75;;;;;11.95;79.84;98937.47;4985040;28;45482;-82
2022/04/07 04:47:56;;;;;;;;;5.50;5.00;;;;;11.55;80.14;98883.03;4994915;28;45837;-83
2022/04/07 04:50:21;;;;;;;;;1.50;1.00;;;;;11.60;79.72;98906.72;4999882;28;45394;-81
2022/04/07 04:52:47;;;;;;;;;2.00;1.75;;;;;11.80;80.18;98943.59;4997658;28;45558;-81
2022/04/07 04:55:12;;;;;;;;;6.25;5.00;;;;;11.75;79.86;98924.28;4995991;28;45548;-82
2022/04/07 04:57:38;;;;;;;;;3.50;3.25;;;;;11.77;79.99;98923.44;4995956;28;45681;-83
2022/04/07 05:00:04;;;;;;;;;3.50;3.50;;;;;11.33;79.77;98837.44;4998172;28;45684;-83
2022/04/07 05:02:30;;;;;;;;;2.75;2.25;;;;;11.79;79.79;98900.59;4999828;28;45557;-83
2022/04/07 05:04:56;;;;;;;;;1.00;1.00;;;;;11.98;79.54;98932.22;5005411;28;45398;-84
2022/04/07 05:07:21;;;;;;;;;2.00;2.00;;;;;11.69;79.52;98880.44;5008321;28;45354;-83
2022/04/07 05:09:46;;;;;;;;;1.25;1.25;;;;;11.72;79.78;98864.63;5006412;28;45442;-83
2022/04/07 05:12:12;;;;;;;;;3.75;2.75;;;;;11.85;79.24;98883.97;5002432;28;46118;-84
2022/04/07 05:14:37;;;;;;;;;1.25;1.00;;;;;12.09;79.10;98909.38;5006513;28;44990;-83
2022/04/07 05:17:03;;;;;;;;;2.00;1.00;;;;;12.04;78.86;98895.34;5002221;28;44972;-83
2022/04/07 05:19:28;;;;;;;;;3.00;2.00;;;;;12.10;78.78;98900.59;5009149;28;45245;-83
2022/04/07 05:21:53;;;;;;;;;3.00;2.00;;;;;12.17;78.50;98901.47;5007938;28;47146;-83
2022/04/07 05:24:19;;;;;;;;;3.50;2.50;;;;;12.01;78.38;98875.16;4979465;28;45711;-84
2022/04/07 05:26:45;;;;;;;;;3.00;2.00;;;;;11.99;78.53;98868.16;4998349;28;45293;-84
2022/04/07 05:29:10;;;;;;;;;3.75;3.25;;;;;11.97;78.55;98855.00;4991556;28;45164;-84
2022/04/07 05:31:36;;;;;;;;;3.00;2.00;;;;;11.77;78.19;98810.25;4979812;28;46914;-84
2022/04/07 05:34:01;;;;;;;;;2.00;2.00;;;;;11.95;78.33;98838.31;5006446;28;46368;-83
2022/04/07 05:36:27;;;;;;;;;3.00;3.00;;;;;12.07;77.85;98847.97;5005048;28;45303;-85
2022/04/07 05:38:53;;;;;;;;;4.00;4.00;;;;;12.34;77.91;98889.16;4998465;28;45059;-83
2022/04/07 05:41:18;;;;;;;;;4.00;4.00;;;;;12.05;77.87;98832.16;5013442;28;45402;-85
2022/04/07 05:43:43;;;;;;;;;4.00;3.00;;;;;12.14;77.90;98824.22;5008045;28;45229;-85
2022/04/07 05:46:09;;;;;;;;;4.00;3.00;;;;;11.99;77.91;98789.16;5008002;28;44957;-84
2022/04/07 05:48:34;;;;;;;;;3.00;2.00;;;;;12.15;77.60;98814.56;5007173;28;45061;-84
2022/04/07 05:50:59;;;;;;;;;2.67;2.67;;;;;12.08;77.51;98804.94;5008744;28;46106;-84
2022/04/07 05:53:25;;;;;;;;;4.00;2.00;;;;;12.39;77.38;98861.91;5008465;28;45113;-82
2022/04/07 05:55:50;;;;;;;;;3.00;3.00;;;;;12.27;77.21;98834.75;5007908;28;45144;-83
2022/04/07 05:58:16;;;;;;;;;3.00;2.00;;;;;12.24;77.00;98832.13;5007124;28;45103;-83
2022/04/07 06:00:41;;;;;;;;;3.50;3.00;;;;;12.40;76.98;98855.75;5006456;28;45393;-83
2022/04/07 06:03:06;;;;;;;;;3.25;2.25;;;;;12.29;76.68;98827.72;4988622;28;45213;-84
2022/04/07 06:05:32;;;;;;;;;2.00;2.00;;;;;12.32;76.23;98830.34;5007838;28;45575;-83
2022/04/07 06:08:02;;;;;;;;;3.00;3.00;;;;;12.46;76.14;98853.97;5008188;28;45103;-83
2022/04/07 06:10:28;;;;;;;;;2.00;1.00;;;;;12.28;75.98;98802.25;4989401;28;47997;-82
2022/04/07 06:12:54;;;;;;;;;2.25;2.25;;;;;12.23;75.76;98801.41;4990503;28;45335;-84
2022/04/07 06:15:19;;;;;;;;;3.00;3.00;;;;;12.32;75.76;98823.31;5008733;28;45153;-83
2022/04/07 06:17:45;;;;;;;;;3.50;2.25;;;;;12.45;75.68;98865.41;4991517;28;45270;-83
2022/04/07 06:20:11;;;;;;;;;1.00;1.00;;;;;12.56;75.67;98858.34;5006361;28;45413;-83
2022/04/07 06:22:41;;;;;;;;;3.50;3.00;;;;;12.58;75.37;98862.72;5008270;28;45517;-83
2022/04/07 06:25:07;;;;;;;;;5.00;3.00;;;;;12.33;75.39;98811.88;5007656;28;45444;-83
2022/04/07 06:27:39;;;;;;;;;2.25;2.00;;;;;12.62;75.34;98843.41;5007836;28;45194;-83
2022/04/07 06:30:06;;;;;;;;;2.50;2.50;;;;;12.66;75.21;98844.25;5007824;28;45246;-84
2022/04/07 06:32:32;;;;;;;;;5.00;3.50;;;;;12.69;75.24;98846.88;4989795;28;45391;-84
2022/04/07 06:34:58;;;;;;;;;2.50;2.25;;;;;12.40;75.12;98800.44;5008103;28;45030;-83
2022/04/07 06:37:24;;;;;;;;;3.00;2.00;;;;;12.45;75.27;98812.72;5008821;28;45121;-83
2022/04/07 06:39:49;;;;;;;;;1.00;1.00;;;;;12.59;75.08;98837.25;5007404;28;46145;-83
2022/04/07 06:42:15;;;;;;;;;2.00;2.00;;;;;12.43;75.73;98810.09;5008450;28;45198;-84
2022/04/07 06:44:41;;;;;;;;;3.00;1.00;;;;;12.42;75.55;98792.53;5007881;28;45135;-83
2022/04/07 06:47:06;;;;;;;;;1.50;1.50;;;;;12.54;75.69;98802.13;5008278;28;45228;-83
2022/04/07 06:49:31;;;;;;;;;2.25;2.00;;;;;12.49;75.66;98794.25;5007570;28;46040;-83
2022/04/07 06:51:57;;;;;;;;;2.00;2.00;;;;;12.29;76.15;98775.91;5014435;28;45180;-84
2022/04/07 06:54:22;;;;;;;;;2.00;1.33;;;;;12.34;76.72;98800.47;5014434;28;45213;-83
2022/04/07 06:56:47;;;;;;;;;2.00;1.50;;;;;12.56;76.97;98814.44;5014481;28;45161;-83
2022/04/07 06:59:13;;;;;;;;;2.25;2.25;;;;;12.33;76.78;98769.75;5012641;28;47237;-83
2022/04/07 07:01:38;;;;;;;;;1.00;1.00;;;;;12.33;76.58;98760.97;4996614;28;45346;-83
2022/04/07 07:04:04;;;;;;;;;2.00;1.00;;;;;12.65;76.73;98818.75;5013707;28;45090;-82
2022/04/07 07:06:29;;;;;;;;;1.25;1.25;;;;;12.51;76.93;98803.03;5013468;28;45242;-82
2022/04/07 07:08:54;;;;;;;;;1.67;1.33;;;;;12.27;76.93;98740.81;5013707;28;45909;-83
2022/04/07 07:11:21;;;;;;;;;0.00;0.00;;;;;12.73;76.98;98830.16;5013499;28;45623;-83
2022/04/07 07:13:46;;;;;;;;;2.00;1.00;;;;;12.42;77.33;98760.94;5009260;28;45370;-82
2022/04/07 07:16:12;;;;;;;;;2.00;2.00;;;;;12.50;76.77;98767.00;5011251;28;45325;-83
2022/04/07 07:18:38;;;;;;;;;0.50;0.50;;;;;12.82;77.17;98814.31;5014155;28;45594;-83
2022/04/07 07:21:04;;;;;;;;;0.00;0.00;;;;;12.43;77.03;98727.56;5014317;28;45512;-82
2022/04/07 07:23:30;;;;;;;;;1.00;1.00;;;;;12.78;76.65;98782.69;5014237;28;45059;-82
2022/04/07 07:25:55;;;;;;;;;2.25;1.00;;;;;12.61;76.68;98751.13;4995660;28;45236;-83
2022/04/07 07:28:20;;;;;;;;;0.00;0.00;;;;;12.93;76.76;98781.72;4996267;28;47857;-83
2022/04/07 07:30:49;;;;;;;;;1.50;1.00;;;;;12.75;76.40;98748.44;5014512;28;45060;-82
2022/04/07 07:33:14;;;;;;;;;2.00;1.00;;;;;12.82;76.16;98751.03;5014253;28;45482;-83
2022/04/07 07:35:42;;;;;;;;;0.50;0.50;;;;;12.80;75.99;98747.50;5014358;28;45086;-83
2022/04/07 07:38:08;;;;;;;;;0.25;0.00;;;;;13.07;75.83;98790.41;5013839;28;45222;-83
2022/04/07 07:40:34;;;;;;;;;0.00;0.00;;;;;13.13;76.83;98783.31;5013300;28;45280;-83
2022/04/07 07:43:01;;;;;;;;;1.00;1.00;;;;;13.18;76.15;98776.25;5014064;28;45388;-83
2022/04/07 07:45:28;;;;;;;;;0.00;0.00;;;;;13.02;76.00;98752.66;5014619;28;45078;-84
2022/04/07 07:47:54;;;;;;;;;1.00;1.00;;;;;13.11;75.84;98734.13;5013290;28;45412;-82
2022/04/07 07:50:20;;;;;;;;;0.00;0.00;;;;;12.90;75.81;98728.09;5014438;28;45052;-83
2022/04/07 07:52:45;;;;;;;;;0.00;0.00;;;;;13.03;76.05;98741.22;5012374;28;45336;-84
2022/04/07 07:55:11;;;;;;;;;0.00;0.00;;;;;13.29;76.21;98770.91;5013885;28;45254;-84
2022/04/07 07:57:36;;;;;;;;;0.00;0.00;;;;;13.28;77.28;98761.25;5013993;28;45557;-83
2022/04/07 08:00:07;;;;;;;;;0.00;0.00;;;;;12.98;76.85;98709.59;5013911;28;45319;-84
2022/04/07 08:02:34;;;;;;;;;0.75;0.00;;;;;13.35;76.77;98760.34;5010839;28;45173;-84
2022/04/07 08:05:00;;;;;;;;;0.00;0.00;;;;;13.06;76.60;98701.66;5010907;28;45000;-83
2022/04/07 08:07:25;;;;;;;;;0.00;0.00;;;;;13.41;76.61;98754.13;4993065;28;47068;-84
2022/04/07 08:09:50;;;;;;;;;0.00;0.00;;;;;13.32;76.82;98733.09;5009139;28;45054;-83
2022/04/07 08:12:16;;;;;;;;;0.00;0.00;;;;;13.37;76.95;98718.97;5010786;28;45908;-82
2022/04/07 08:14:41;;;;;;;;;1.00;0.00;;;;;13.46;76.58;98738.25;5010303;28;45048;-83
2022/04/07 08:17:06;;;;;;;;;0.00;0.00;;;;;13.61;78.15;98752.19;5008638;28;47716;-84
2022/04/07 08:19:32;;;;;;;;;0.00;0.00;;;;;13.41;77.30;98693.44;5011057;28;45202;-83
2022/04/07 08:21:57;;;;;;;;;0.00;0.00;;;;;13.65;76.54;98734.56;5010575;28;45043;-82
2022/04/07 08:24:22;;;;;;;;;0.00;0.00;;;;;13.92;76.57;98741.28;5006849;28;45202;-83
2022/04/07 08:26:48;;;;;;;;;0.00;0.00;;;;;13.94;76.17;98721.03;5001881;28;45960;-83
2022/04/07 08:29:14;;;;;;;;;0.00;0.00;;;;;14.07;74.85;98711.19;4997172;28;45029;-81
2022/04/07 08:31:39;;;;;;;;;0.00;0.00;;;;;14.00;75.36;98701.59;4990088;28;45154;-83
2022/04/07 08:34:05;;;;;;;;;0.25;0.00;;;;;14.46;75.19;98758.25;4989231;28;45524;-83
2022/04/07 08:36:30;;;;;;;;;0.00;0.00;;;;;14.44;74.50;98744.19;5002552;28;45947;-83
2022/04/07 08:38:56;;;;;;;;;0.00;0.00;;;;;14.37;74.41;98705.50;5009243;28;45059;-83
2022/04/07 08:41:22;;;;;;;;;0.00;0.00;;;;;14.39;73.94;98709.00;5010725;28;45004;-83
2022/04/07 08:43:47;;;;;;;;;0.00;0.00;;;;;14.48;73.37;98708.03;5007670;28;45133;-83
2022/04/07 08:46:13;;;;;;;;;0.00;0.00;;;;;14.61;73.74;98724.59;4990169;28;47556;-83
2022/04/07 08:48:42;;;;;;;;;0.00;0.00;;;;;14.61;73.47;98690.22;5009596;28;45178;-83
2022/04/07 08:51:09;;;;;;;;;0.00;0.00;;;;;14.76;73.59;98710.28;4989158;28;45138;-83
2022/04/07 08:53:36;;;;;;;;;0.00;0.00;;;;;15.09;72.65;98748.56;4987245;28;45409;-84
2022/04/07 08:56:02;;;;;;;;;0.00;0.00;;;;;14.87;72.44;98700.41;4988495;28;45967;-83
2022/04/07 08:58:28;;;;;;;;;0.00;0.00;;;;;14.94;72.51;98705.59;4989731;28;45503;-83
2022/04/07 09:00:53;;;;;;;;;0.00;0.00;;;;;15.03;72.07;98711.63;4989900;28;45221;-84
2022/04/07 09:03:19;;;;;;;;;1.00;0.00;;;;;15.26;72.04;98757.09;4972457;28;45201;-81
2022/04/07 09:05:54;;;;;;;;;0.00;0.00;;;;;15.12;71.91;98712.38;4989836;28;45566;-83
2022/04/07 09:08:20;;;;;;;;;0.00;0.00;;;;;15.20;71.52;98699.84;4989871;28;45669;-83
2022/04/07 09:10:55;;;;;;;;;0.75;0.75;;;;;15.15;71.21;98690.25;4989291;28;45160;-83
2022/04/07 09:13:21;;;;;;;;;0.50;0.00;;;;;15.48;71.99;98762.94;4989329;28;45256;-83
2022/04/07 09:15:47;;;;;;;;;0.00;0.00;;;;;15.22;71.77;98735.13;4987659;28;45647;-83
2022/04/07 09:18:13;;;;;;;;;0.00;0.00;;;;;15.01;71.99;98705.47;4989974;28;45157;-83
2022/04/07 09:20:44;;;;;;;;;0.00;0.00;;;;;15.17;71.85;98736.06;4994612;28;45201;-83
2022/04/07 09:23:12;;;;;;;;;0.00;0.00;;;;;15.22;71.94;98739.50;5007001;28;45169;-83
2022/04/07 09:25:43;;;;;;;;;0.00;0.00;;;;;15.23;72.19;98741.28;4989416;28;45732;-83
2022/04/07 09:28:11;;;;;;;;;0.00;0.00;;;;;15.30;71.36;98732.34;4997656;28;45255;-84
2022/04/07 09:30:41;;;;;;;;;0.75;0.75;;;;;15.29;71.59;98704.13;4988536;28;45270;-84
2022/04/07 09:33:19;;;;;;;;;0.00;0.00;;;;;15.64;70.86;98758.25;4991011;28;45222;-83
2022/04/07 09:36:05;;;;;;;;;0.25;0.00;;;;;15.36;70.70;98678.41;5008805;28;45923;-84
2022/04/07 09:38:31;;;;;;;;;1.00;0.00;;;;;15.68;70.55;98714.94;4990699;28;45131;-84
2022/04/07 09:41:04;;;;;;;;;0.00;0.00;;;;;15.61;70.06;98681.47;5008952;28;45410;-83
2022/04/07 09:43:29;;;;;;;;;0.00;0.00;;;;;15.85;69.43;98711.97;5007444;28;45153;-83
2022/04/07 09:45:55;;;;;;;;;0.00;0.00;;;;;15.88;69.83;98694.25;5008997;28;45687;-83
2022/04/07 09:48:22;;;;;;;;;0.00;0.00;;;;;16.05;68.84;98695.66;5009359;28;45077;-84
2022/04/07 09:51:07;;;;;;;;;1.00;1.00;;;;;16.42;68.42;98749.66;5005684;28;45471;-84
2022/04/07 09:53:37;;;;;;;;;0.00;0.00;;;;;16.43;68.18;98754.06;5008884;28;45033;-83
2022/04/07 09:56:03;;;;;;;;;0.00;0.00;;;;;16.27;68.41;98752.66;5008274;28;45945;-83
2022/04/07 09:58:28;;;;;;;;;0.00;0.00;;;;;16.07;68.06;98729.19;5008183;28;45591;-84
2022/04/07 10:00:56;;;;;;;;;0.00;0.00;;;;;16.08;68.56;98748.63;5008369;28;45100;-84
2022/04/07 10:03:22;;;;;;;;;0.00;0.00;;;;;16.25;68.14;98765.94;5008448;28;45250;-84
2022/04/07 10:05:48;;;;;;;;;0.50;0.50;;;;;16.02;68.01;98722.25;5008123;28;45245;-83
2022/04/07 10:08:16;;;;;;;;;0.00;0.00;;;;;16.20;67.58;98796.06;5008026;28;45422;-84
2022/04/07 10:10:42;;;;;;;;;0.00;0.00;;;;;16.21;67.45;98769.56;4990387;28;45051;-84
2022/04/07 10:13:08;;;;;;;;;0.50;0.00;;;;;16.19;67.16;98755.44;5006857;28;45083;-84
2022/04/07 10:15:35;;;;;;;;;1.00;0.00;;;;;16.34;67.59;98748.94;4978107;28;47419;-83
2022/04/07 10:18:09;;;;;;;;;0.50;0.00;;;;;16.40;67.07;98729.38;5014911;28;45487;-84
2022/04/07 10:20:39;;;;;;;;;0.75;0.75;;;;;16.55;66.48;98773.25;5006069;28;45185;-83
2022/04/07 10:23:29;;;;;;;;;0.50;0.50;;;;;16.49;67.15;98779.56;5006579;28;45098;-83
2022/04/07 10:25:58;;;;;;;;;1.00;0.75;;;;;16.27;66.78;98781.81;5005474;28;47771;-83
2022/04/07 10:28:25;;;;;;;;;1.00;1.00;;;;;16.02;67.84;98768.16;5006464;28;45243;-84
2022/04/07 10:30:52;;;;;;;;;1.75;0.00;;;;;15.74;76.36;98778.38;5006240;28;44931;-84
2022/04/07 10:33:41;;;;;;;;;2.00;0.00;;;;;15.44;73.23;98830.06;5006697;28;44928;-83
2022/04/07 10:36:15;;;;;;;;;1.00;1.00;;;;;14.91;79.84;98822.00;5006844;28;45660;-84
2022/04/07 10:38:42;;;;;;;;;0.25;0.25;;;;;14.87;79.55;98845.88;4987829;28;45522;-84
2022/04/07 10:41:08;;;;;;;;;1.00;1.00;;;;;14.60;78.19;98849.75;5007402;28;45248;-84
2022/04/07 10:43:38;;;;;;;;;0.00;0.00;;;;;14.64;76.77;98862.06;4988746;28;45327;-84
2022/04/07 10:46:06;;;;;;;;;0.00;0.00;;;;;14.70;76.96;98865.50;4988849;28;47849;-83
2022/04/07 10:49:00;;;;;;;;;0.00;0.00;;;;;14.39;74.92;98803.28;5006955;28;45168;-84
2022/04/07 10:51:51;;;;;;;;;0.00;0.00;;;;;14.99;73.63;98873.94;4970775;28;45208;-83
2022/04/07 10:54:17;;;;;;;;;0.00;0.00;;;;;15.22;73.64;98869.19;4992285;28;45279;-84
2022/04/07 10:56:48;;;;;;;;;0.00;0.00;;;;;15.44;72.49;98881.22;5003245;28;45069;-84
2022/04/07 10:59:17;;;;;;;;;0.00;0.00;;;;;15.49;71.73;98891.75;5001210;28;45453;-84
2022/04/07 11:01:42;;;;;;;;;0.00;0.00;;;;;15.53;71.75;98896.09;4991687;28;45086;-84
2022/04/07 11:04:49;;;;;;;;;0.00;0.00;;;;;15.64;71.14;98890.69;5007917;28;45055;-84
2022/04/07 11:07:18;;;;;;;;;0.00;0.00;;;;;15.71;70.92;98887.00;4955421;28;47894;-84
2022/04/07 11:09:49;;;;;;;;;0.00;0.00;;;;;15.80;70.62;98884.22;5005679;28;45521;-83
2022/04/07 11:12:22;;;;;;;;;0.00;0.00;;;;;15.86;69.50;98885.88;5005963;28;45297;-84
2022/04/07 11:14:51;;;;;;;;;0.00;0.00;;;;;15.93;69.91;98885.78;4987703;28;45239;-84
2022/04/07 11:17:43;;;;;;;;;0.00;0.00;;;;;15.90;69.17;98864.63;5008341;28;45708;-83
2022/04/07 11:20:15;;;;;;;;;0.00;0.00;;;;;16.36;68.86;98902.72;4990937;28;45137;-84
2022/04/07 11:22:52;;;;;;;;;0.00;0.00;;;;;16.30;68.77;98865.69;5005782;28;45201;-84
2022/04/07 11:25:30;;;;;;;;;0.00;0.00;;;;;16.78;68.90;98906.34;4989380;28;45298;-84
2022/04/07 11:28:17;;;;;;;;;0.00;0.00;;;;;16.98;67.11;98914.75;5007283;28;46074;-82
2022/04/07 11:30:54;;;;;;;;;0.00;0.00;;;;;16.85;65.93;98918.59;5006016;28;45875;-84